Time;durP1;ratioP1;P1;durP2;ratioP2;P2;SDS_P1;SDS_P2;PMS_P1;PMS_P2;Temp;Humidity;BMP_temperature;BMP_pressure;BME280_temperature;BME280_humidity;BME280_pressure;Samples;Min_cycle;Max_cycle;Signal;HPM_P1;HPM_P2
2022/01/07 00:04:27;;;;;;;11.15;6.60;;;;;;;;;;20915605;28;20057;-58
2022/01/07 00:14:29;;;;;;;9.90;6.57;;;;;;;;;;20913905;28;20067;-58
2022/01/07 00:24:31;;;;;;;8.70;6.22;;;;;;;;;;20915341;28;20049;-65
2022/01/07 00:34:34;;;;;;;13.15;7.78;;;;;;;;;;20912986;28;20064;-62
2022/01/07 00:44:37;;;;;;;8.52;5.05;;;;;;;;;;20915205;28;20099;-65
2022/01/07 00:54:40;;;;;;;9.32;5.82;;;;;;;;;;20913362;28;20167;-58
2022/01/07 01:04:43;;;;;;;8.82;5.80;;;;;;;;;;20912184;28;20049;-66
2022/01/07 01:14:45;;;;;;;9.48;6.43;;;;;;;;;;20910440;28;20525;-61
2022/01/07 01:24:48;;;;;;;9.02;6.05;;;;;;;;;;20926211;28;20485;-64
2022/01/07 01:34:50;;;;;;;9.10;7.15;;;;;;;;;;20927349;28;20408;-67
2022/01/07 01:44:53;;;;;;;11.07;6.65;;;;;;;;;;20926214;28;20080;-63
2022/01/07 01:54:56;;;;;;;10.05;6.40;;;;;;;;;;20924947;28;20060;-67
2022/01/07 02:04:59;;;;;;;9.43;6.80;;;;;;;;;;20924555;28;20045;-62
2022/01/07 02:15:01;;;;;;;9.23;6.40;;;;;;;;;;20924263;28;20132;-65
2022/01/07 02:25:05;;;;;;;7.78;5.22;;;;;;;;;;20924455;28;20052;-67
2022/01/07 02:35:09;;;;;;;7.90;4.57;;;;;;;;;;20930695;28;20076;-60
2022/01/07 02:45:13;;;;;;;4.82;3.65;;;;;;;;;;20925766;28;20099;-59
2022/01/07 02:55:17;;;;;;;8.93;6.70;;;;;;;;;;20920398;28;20053;-61
2022/01/07 03:05:20;;;;;;;8.35;6.85;;;;;;;;;;20920896;28;20041;-67
2022/01/07 03:15:23;;;;;;;9.13;6.75;;;;;;;;;;20919886;28;20049;-68
2022/01/07 03:25:27;;;;;;;8.63;6.55;;;;;;;;;;20919452;28;20428;-68
2022/01/07 03:35:30;;;;;;;10.70;6.90;;;;;;;;;;20917853;28;20049;-59
2022/01/07 03:45:34;;;;;;;11.68;7.57;;;;;;;;;;20916574;28;20123;-67
2022/01/07 03:55:37;;;;;;;8.15;6.50;;;;;;;;;;20916166;28;20092;-58
2022/01/07 04:05:41;;;;;;;9.27;6.45;;;;;;;;;;20915418;28;20049;-65
2022/01/07 04:15:44;;;;;;;9.00;6.50;;;;;;;;;;20915417;28;20048;-57
2022/01/07 04:26:06;;;;;;;8.90;6.80;;;;;;;;;;20915030;28;20067;-68
2022/01/07 04:36:27;;;;;;;9.15;6.78;;;;;;;;;;20913041;28;20049;-59
2022/01/07 04:46:50;;;;;;;9.55;6.75;;;;;;;;;;20913320;28;20045;-58
2022/01/07 04:57:01;;;;;;;10.50;7.28;;;;;;;;;;20911061;28;20068;-67
2022/01/07 05:07:06;;;;;;;10.15;6.72;;;;;;;;;;20912242;28;20049;-67
2022/01/07 05:17:09;;;;;;;9.90;6.75;;;;;;;;;;20911031;28;20060;-64
2022/01/07 05:27:12;;;;;;;8.00;6.40;;;;;;;;;;20911899;28;20052;-65
2022/01/07 05:37:15;;;;;;;10.57;6.82;;;;;;;;;;20910399;28;20064;-58
2022/01/07 05:47:21;;;;;;;9.05;6.45;;;;;;;;;;20910330;28;20084;-59
2022/01/07 05:57:24;;;;;;;9.18;6.60;;;;;;;;;;20910102;28;20092;-68
2022/01/07 06:07:27;;;;;;;10.25;6.65;;;;;;;;;;20916077;28;20096;-67
2022/01/07 06:17:30;;;;;;;9.85;7.13;;;;;;;;;;20924541;28;20056;-67
2022/01/07 06:27:33;;;;;;;9.48;6.20;;;;;;;;;;20924289;28;20520;-67
2022/01/07 06:37:37;;;;;;;10.45;6.88;;;;;;;;;;20921771;28;20102;-68
2022/01/07 06:47:44;;;;;;;11.57;7.38;;;;;;;;;;20922482;28;20044;-68
2022/01/07 06:57:48;;;;;;;9.73;6.43;;;;;;;;;;20921507;28;20053;-64
2022/01/07 07:07:51;;;;;;;10.43;6.47;;;;;;;;;;20920942;28;20052;-68
2022/01/07 07:17:54;;;;;;;10.20;7.00;;;;;;;;;;20924943;28;20053;-60
2022/01/07 07:28:02;;;;;;;10.55;6.55;;;;;;;;;;20925988;28;20084;-60
2022/01/07 07:38:05;;;;;;;10.55;7.50;;;;;;;;;;20916985;28;20049;-68
2022/01/07 07:48:14;;;;;;;12.60;7.40;;;;;;;;;;20917945;28;20048;-68
2022/01/07 07:58:36;;;;;;;9.68;6.70;;;;;;;;;;20916645;28;20099;-67
2022/01/07 08:08:57;;;;;;;13.70;7.63;;;;;;;;;;20916129;28;20445;-58
2022/01/07 08:19:19;;;;;;;16.10;7.90;;;;;;;;;;20913095;28;20053;-61
2022/01/07 08:29:36;;;;;;;9.95;6.63;;;;;;;;;;20913259;28;20053;-69
2022/01/07 08:39:48;;;;;;;11.73;6.93;;;;;;;;;;20913130;28;20397;-59
2022/01/07 08:49:58;;;;;;;17.17;11.25;;;;;;;;;;20911533;28;20049;-68
2022/01/07 09:00:18;;;;;;;13.20;8.43;;;;;;;;;;20910399;28;20049;-68
2022/01/07 09:10:29;;;;;;;13.23;8.82;;;;;;;;;;20912259;28;20504;-67
2022/01/07 09:20:38;;;;;;;13.00;8.40;;;;;;;;;;20911171;28;20049;-58
2022/01/07 09:30:43;;;;;;;14.43;8.85;;;;;;;;;;20911540;28;20045;-67
2022/01/07 09:40:46;;;;;;;11.18;7.50;;;;;;;;;;20913762;28;20048;-62
2022/01/07 09:50:50;;;;;;;10.10;7.10;;;;;;;;;;20919715;28;20057;-66
2022/01/07 10:01:09;;;;;;;14.50;8.25;;;;;;;;;;20924252;28;20478;-67
2022/01/07 10:11:19;;;;;;;11.95;6.95;;;;;;;;;;20924953;28;20132;-56
2022/01/07 10:21:22;;;;;;;41.40;23.45;;;;;;;;;;20923074;28;20132;-56
2022/01/07 10:31:25;;;;;;;14.38;10.38;;;;;;;;;;20922396;28;20136;-67
2022/01/07 10:41:29;;;;;;;20.35;11.25;;;;;;;;;;20921835;28;20056;-59
2022/01/07 10:51:32;;;;;;;16.80;11.73;;;;;;;;;;20920574;28;20056;-66
2022/01/07 11:01:39;;;;;;;18.70;9.77;;;;;;;;;;20882184;28;20104;-56
2022/01/07 11:11:47;;;;;;;14.90;10.05;;;;;;;;;;20863171;28;20045;-51
2022/01/07 11:21:53;;;;;;;11.80;8.50;;;;;;;;;;20906913;28;20144;-55
2022/01/07 11:32:15;;;;;;;12.35;7.65;;;;;;;;;;20911473;28;20052;-58
2022/01/07 11:42:37;;;;;;;10.15;7.28;;;;;;;;;;20885759;28;20054;-54
2022/01/07 11:52:39;;;;;;;9.38;6.97;;;;;;;;;;20837056;28;20088;-53
2022/01/07 12:03:01;;;;;;;10.20;7.05;;;;;;;;;;20875901;28;20437;-58
2022/01/07 12:13:02;;;;;;;10.98;6.88;;;;;;;;;;20913581;28;20063;-57
2022/01/07 12:23:05;;;;;;;8.32;6.60;;;;;;;;;;20871230;28;20457;-55
2022/01/07 12:33:06;;;;;;;8.00;5.57;;;;;;;;;;20912907;28;20071;-55
2022/01/07 12:43:07;;;;;;;8.18;4.45;;;;;;;;;;20913278;28;20135;-55
2022/01/07 12:53:10;;;;;;;8.40;4.13;;;;;;;;;;20913394;28;20126;-54
2022/01/07 13:03:16;;;;;;;6.40;3.75;;;;;;;;;;20913481;28;20148;-55
2022/01/07 13:13:24;;;;;;;3.72;2.35;;;;;;;;;;20913504;28;20041;-56
2022/01/07 13:23:26;;;;;;;3.08;1.63;;;;;;;;;;20928197;28;20053;-54
2022/01/07 13:33:30;;;;;;;3.10;0.88;;;;;;;;;;20927828;28;20049;-54
2022/01/07 13:43:34;;;;;;;1.52;0.73;;;;;;;;;;20926827;28;20052;-57
2022/01/07 13:53:36;;;;;;;2.88;1.00;;;;;;;;;;20924633;28;20144;-56
2022/01/07 14:03:49;;;;;;;1.10;0.75;;;;;;;;;;20925192;28;20049;-57
2022/01/07 14:13:51;;;;;;;1.20;0.68;;;;;;;;;;20924565;28;20063;-59
2022/01/07 14:23:55;;;;;;;3.42;1.63;;;;;;;;;;20922374;28;20053;-57
2022/01/07 14:33:57;;;;;;;3.75;1.40;;;;;;;;;;20923895;28;20347;-59
2022/01/07 14:43:58;;;;;;;4.05;1.58;;;;;;;;;;20922608;28;20191;-57
2022/01/07 14:54:00;;;;;;;2.40;1.10;;;;;;;;;;20922473;28;20052;-57
2022/01/07 15:04:02;;;;;;;2.42;1.20;;;;;;;;;;20903335;28;20052;-56
2022/01/07 15:14:04;;;;;;;1.52;0.80;;;;;;;;;;20920248;28;20060;-57
2022/01/07 15:24:08;;;;;;;1.73;0.70;;;;;;;;;;20920103;28;20099;-56
2022/01/07 15:34:11;;;;;;;2.30;0.95;;;;;;;;;;20917849;28;20095;-62
2022/01/07 15:44:13;;;;;;;3.97;1.17;;;;;;;;;;20916092;28;20059;-63
2022/01/07 15:54:15;;;;;;;0.80;0.70;;;;;;;;;;20916041;28;20049;-57
2022/01/07 16:04:17;;;;;;;1.52;0.73;;;;;;;;;;20915791;28;20049;-58
2022/01/07 16:14:18;;;;;;;1.40;0.70;;;;;;;;;;20914707;28;20045;-59
2022/01/07 16:24:20;;;;;;;2.35;0.90;;;;;;;;;;20914756;28;20481;-59
2022/01/07 16:34:22;;;;;;;2.25;0.90;;;;;;;;;;20913142;28;20045;-57
2022/01/07 16:44:24;;;;;;;1.65;0.90;;;;;;;;;;20913108;28;20053;-58
2022/01/07 16:54:26;;;;;;;1.73;0.70;;;;;;;;;;20910016;28;20049;-58
2022/01/07 17:04:29;;;;;;;2.72;1.20;;;;;;;;;;20912041;28;20056;-58
2022/01/07 17:14:31;;;;;;;1.90;1.20;;;;;;;;;;20911757;28;20480;-57
2022/01/07 17:24:33;;;;;;;3.47;1.48;;;;;;;;;;20910921;28;20115;-60
2022/01/07 17:34:34;;;;;;;2.05;1.20;;;;;;;;;;20910829;28;20059;-61
2022/01/07 17:44:36;;;;;;;3.35;1.40;;;;;;;;;;20910669;28;20497;-60
2022/01/07 17:54:38;;;;;;;1.95;1.45;;;;;;;;;;20909673;28;20081;-61
2022/01/07 18:04:40;;;;;;;3.15;2.00;;;;;;;;;;20917734;28;20056;-60
2022/01/07 18:14:41;;;;;;;2.63;1.50;;;;;;;;;;20923932;28;20080;-58
2022/01/07 18:24:43;;;;;;;3.13;1.75;;;;;;;;;;20925855;28;20555;-60
2022/01/07 18:34:45;;;;;;;3.72;1.98;;;;;;;;;;20923226;28;20417;-62
2022/01/07 18:44:47;;;;;;;3.85;2.40;;;;;;;;;;20921246;28;20132;-60
2022/01/07 18:54:49;;;;;;;13.95;7.95;;;;;;;;;;20922278;28;20053;-56
2022/01/07 19:04:52;;;;;;;8.80;3.97;;;;;;;;;;20920331;28;20049;-54
2022/01/07 19:14:53;;;;;;;5.13;2.67;;;;;;;;;;20919206;28;20056;-58
2022/01/07 19:24:55;;;;;;;4.07;2.90;;;;;;;;;;20918646;28;20425;-54
2022/01/07 19:34:57;;;;;;;5.43;3.60;;;;;;;;;;20918201;28;20624;-57
2022/01/07 19:44:58;;;;;;;6.00;2.72;;;;;;;;;;20917524;28;20059;-60
2022/01/07 19:55:00;;;;;;;6.68;4.53;;;;;;;;;;20916283;28;20099;-54
2022/01/07 20:05:02;;;;;;;10.20;5.13;;;;;;;;;;20915803;28;20098;-53
2022/01/07 20:15:04;;;;;;;14.40;9.07;;;;;;;;;;20914346;28;20168;-62
2022/01/07 20:25:07;;;;;;;9.23;5.15;;;;;;;;;;20912817;28;20056;-61
2022/01/07 20:35:09;;;;;;;10.93;6.32;;;;;;;;;;20912062;28;20124;-52
2022/01/07 20:45:12;;;;;;;11.32;8.52;;;;;;;;;;20911826;28;20106;-61
2022/01/07 20:55:14;;;;;;;13.40;9.15;;;;;;;;;;20910966;28;20106;-60
2022/01/07 21:05:16;;;;;;;12.52;6.25;;;;;;;;;;20911251;28;20060;-59
2022/01/07 21:15:18;;;;;;;14.00;8.32;;;;;;;;;;20911643;28;20489;-64
2022/01/07 21:25:20;;;;;;;13.65;7.57;;;;;;;;;;20913378;28;20052;-54
2022/01/07 21:35:21;;;;;;;9.10;5.90;;;;;;;;;;20915738;28;20052;-53
2022/01/07 21:45:23;;;;;;;18.17;9.05;;;;;;;;;;20928024;28;20056;-64
2022/01/07 21:55:28;;;;;;;13.00;8.45;;;;;;;;;;20927480;28;20060;-63
2022/01/07 22:05:30;;;;;;;10.75;5.70;;;;;;;;;;20926507;28;20049;-61
2022/01/07 22:15:32;;;;;;;12.32;7.03;;;;;;;;;;20925353;28;20080;-63
2022/01/07 22:25:33;;;;;;;9.30;5.35;;;;;;;;;;20925740;28;20135;-53
2022/01/07 22:35:35;;;;;;;8.15;4.97;;;;;;;;;;20924786;28;20044;-63
2022/01/07 22:45:37;;;;;;;16.10;7.45;;;;;;;;;;20920756;28;20084;-57
2022/01/07 22:55:39;;;;;;;9.98;4.78;;;;;;;;;;20921487;28;20064;-61
2022/01/07 23:05:41;;;;;;;7.80;4.97;;;;;;;;;;20921106;28;20563;-59
2022/01/07 23:15:43;;;;;;;9.93;5.65;;;;;;;;;;20920888;28;20053;-62
2022/01/07 23:25:44;;;;;;;9.48;5.47;;;;;;;;;;20920049;28;20048;-63
2022/01/07 23:35:47;;;;;;;7.50;4.80;;;;;;;;;;20920271;28;20083;-64
2022/01/07 23:45:48;;;;;;;6.30;3.40;;;;;;;;;;20918476;28;20045;-63
2022/01/07 23:55:50;;;;;;;5.55;3.10;;;;;;;;;;20918927;28;20144;-52
